createdAt,value
2019-06-20T00:00:37.743Z,83
2019-06-20T00:02:38.090Z,83
2019-06-20T00:04:44.646Z,83
2019-06-20T00:06:46.107Z,83
2019-06-20T00:08:42.453Z,83
2019-06-20T00:10:42.827Z,84
2019-06-20T00:12:42.404Z,84
2019-06-20T00:14:42.821Z,84
2019-06-20T00:16:42.236Z,84
2019-06-20T00:18:42.666Z,84
2019-06-20T00:20:42.254Z,84
2019-06-20T00:22:42.739Z,84
2019-06-20T00:24:42.365Z,84
2019-06-20T00:26:42.927Z,84
2019-06-20T00:28:42.589Z,84
2019-06-20T00:30:42.174Z,84
2019-06-20T00:32:42.589Z,84
2019-06-20T00:34:42.241Z,84
2019-06-20T00:36:42.863Z,84
2019-06-20T00:38:42.562Z,84
2019-06-20T00:40:42.271Z,84
2019-06-20T00:42:43.242Z,84
2019-06-20T00:44:42.791Z,84
2019-06-20T00:46:42.534Z,84
2019-06-20T00:48:42.360Z,84
2019-06-20T00:50:43.058Z,84
2019-06-20T00:52:42.728Z,84
2019-06-20T00:54:42.332Z,84
2019-06-20T00:56:42.797Z,84
2019-06-20T00:58:42.450Z,84
2019-06-20T01:00:43.255Z,84
2019-06-20T01:02:42.889Z,84
2019-06-20T01:04:42.392Z,84
2019-06-20T01:06:42.918Z,83
2019-06-20T01:08:42.811Z,83
2019-06-20T01:10:42.340Z,83
2019-06-20T01:12:43.384Z,83
2019-06-20T01:14:41.222Z,83
2019-06-20T01:16:42.668Z,82
2019-06-20T01:18:42.333Z,82
2019-06-20T01:20:42.837Z,82
2019-06-20T01:22:42.362Z,82
2019-06-20T01:24:42.755Z,82
2019-06-20T01:26:42.230Z,82
2019-06-20T01:28:43.335Z,82
2019-06-20T01:30:41.441Z,82
2019-06-20T01:32:42.829Z,82
2019-06-20T01:34:42.294Z,82
2019-06-20T01:36:42.649Z,82
2019-06-20T01:38:42.084Z,82
2019-06-20T01:40:42.464Z,82
2019-06-20T01:42:42.860Z,82
2019-06-20T01:44:42.328Z,82
2019-06-20T01:46:43.406Z,82
2019-06-20T01:48:41.259Z,82
2019-06-20T01:50:42.586Z,82
2019-06-20T01:52:42.102Z,82
2019-06-20T01:54:42.535Z,82
2019-06-20T01:56:42.149Z,82
2019-06-20T01:58:42.586Z,82
2019-06-20T02:00:43.011Z,82
2019-06-20T02:02:42.366Z,82
2019-06-20T02:04:43.826Z,82
2019-06-20T02:06:40.546Z,82
2019-06-20T02:08:37.049Z,82
2019-06-20T02:10:36.647Z,82
2019-06-20T02:12:37.137Z,82
2019-06-20T02:14:37.278Z,81
2019-06-20T02:18:37.421Z,81
2019-06-20T02:20:37.249Z,81
2019-06-20T02:22:37.525Z,81
2019-06-20T02:24:37.821Z,81
2019-06-20T02:26:37.972Z,81
2019-06-20T02:28:37.334Z,81
2019-06-20T02:30:36.924Z,80
2019-06-20T02:32:36.586Z,80
2019-06-20T02:34:36.935Z,76
2019-06-20T02:36:37.393Z,76
2019-06-20T02:38:36.850Z,76
2019-06-20T02:40:37.423Z,80
2019-06-20T02:42:37.251Z,80
2019-06-20T02:44:36.871Z,80
2019-06-20T02:46:37.484Z,80
2019-06-20T02:48:36.826Z,80
2019-06-20T02:50:37.408Z,79
2019-06-20T02:52:36.984Z,79
2019-06-20T02:54:37.519Z,79
2019-06-20T02:56:37.374Z,79
2019-06-20T02:58:36.944Z,79
2019-06-20T03:00:37.404Z,79
2019-06-20T03:02:36.858Z,79
2019-06-20T03:04:37.225Z,79
2019-06-20T03:06:36.650Z,79
2019-06-20T03:08:37.052Z,79
2019-06-20T03:10:36.610Z,79
2019-06-20T03:12:36.979Z,79
2019-06-20T03:14:46.205Z,79
2019-06-20T03:16:36.597Z,79
2019-06-20T03:18:37.049Z,79
2019-06-20T03:20:36.545Z,79
2019-06-20T03:22:37.150Z,79
2019-06-20T03:24:37.267Z,79
2019-06-20T03:26:37.312Z,79
2019-06-20T03:28:36.656Z,79
2019-06-20T03:30:37.072Z,79
2019-06-20T03:32:37.470Z,79
2019-06-20T03:34:37.035Z,78
2019-06-20T03:36:37.380Z,78
2019-06-20T03:38:36.901Z,78
2019-06-20T03:40:37.505Z,78
2019-06-20T03:42:37.151Z,78
2019-06-20T03:44:36.709Z,78
2019-06-20T03:46:37.267Z,78
2019-06-20T03:48:36.705Z,78
2019-06-20T03:50:37.339Z,78
2019-06-20T03:52:36.785Z,78
2019-06-20T03:54:37.282Z,78
2019-06-20T03:56:36.900Z,78
2019-06-20T03:58:37.515Z,78
2019-06-20T04:00:37.724Z,77
2019-06-20T04:02:37.182Z,77
2019-06-20T04:04:45.222Z,77
2019-06-20T04:06:48.763Z,77
2019-06-20T04:08:45.386Z,77
2019-06-20T04:10:44.887Z,77
2019-06-20T04:12:44.394Z,78
2019-06-20T04:14:45.106Z,78
2019-06-20T04:16:44.460Z,78
2019-06-20T04:18:45.184Z,78
2019-06-20T04:20:44.934Z,78
2019-06-20T04:22:44.531Z,78
2019-06-20T04:24:45.002Z,78
2019-06-20T04:26:44.664Z,78
2019-06-20T04:28:45.191Z,78
2019-06-20T04:30:44.694Z,78
2019-06-20T04:32:45.232Z,78
2019-06-20T04:34:44.730Z,78
2019-06-20T04:36:48.483Z,78
2019-06-20T04:38:45.288Z,78
2019-06-20T04:40:44.918Z,78
2019-06-20T04:42:44.568Z,78
2019-06-20T04:44:45.250Z,78
2019-06-20T04:46:44.749Z,78
2019-06-20T04:48:45.291Z,79
2019-06-20T04:50:44.824Z,79
2019-06-20T04:52:45.343Z,79
2019-06-20T04:54:44.934Z,79
2019-06-20T04:56:44.318Z,79
2019-06-20T04:58:44.860Z,79
2019-06-20T05:00:45.334Z,79
2019-06-20T05:02:44.743Z,79
2019-06-20T05:04:45.311Z,79
2019-06-20T05:06:44.864Z,79
2019-06-20T05:08:45.398Z,79
2019-06-20T05:10:45.483Z,79
2019-06-20T05:12:45.018Z,75
2019-06-20T05:14:44.437Z,75
2019-06-20T05:16:44.977Z,75
2019-06-20T05:18:44.696Z,74
2019-06-20T05:20:45.160Z,74
2019-06-20T05:22:44.602Z,73
2019-06-20T05:24:45.090Z,73
2019-06-20T05:26:44.770Z,73
2019-06-20T05:28:45.141Z,72
2019-06-20T05:30:44.700Z,72
2019-06-20T05:32:45.148Z,71
2019-06-20T05:34:44.499Z,71
2019-06-20T05:36:44.871Z,71
2019-06-20T05:38:45.315Z,70
2019-06-20T05:40:44.711Z,70
2019-06-20T05:42:45.163Z,70
2019-06-20T05:44:45.085Z,70
2019-06-20T05:46:44.431Z,70
2019-06-20T05:48:44.804Z,70
2019-06-20T05:50:45.264Z,70
2019-06-20T05:52:44.621Z,70
2019-06-20T05:54:45.103Z,70
2019-06-20T05:56:45.053Z,70
2019-06-20T05:58:44.624Z,70
2019-06-20T06:00:45.267Z,70
2019-06-20T06:02:44.857Z,70
2019-06-20T06:04:45.345Z,70
2019-06-20T06:06:44.645Z,70
2019-06-20T06:08:45.161Z,70
2019-06-20T06:10:44.515Z,70
2019-06-20T06:12:45.652Z,70
2019-06-20T06:14:45.142Z,70
2019-06-20T06:16:44.713Z,70
2019-06-20T06:18:45.310Z,69
2019-06-20T06:20:45.489Z,69
2019-06-20T06:22:45.345Z,66
2019-06-20T06:24:44.808Z,66
2019-06-20T06:26:45.823Z,66
2019-06-20T06:28:46.243Z,64
2019-06-20T06:30:44.764Z,64
2019-06-20T06:32:45.183Z,62
2019-06-20T06:34:44.962Z,62
2019-06-20T06:36:44.411Z,62
2019-06-20T06:38:45.080Z,64
2019-06-20T06:40:44.676Z,64
2019-06-20T06:42:45.165Z,65
2019-06-20T06:44:44.715Z,65
2019-06-20T06:46:59.562Z,65
2019-06-20T06:48:44.699Z,67
2019-06-20T06:50:45.186Z,67
2019-06-20T06:52:44.684Z,67
2019-06-20T06:54:45.163Z,67
2019-06-20T06:56:45.034Z,67
2019-06-20T06:58:44.537Z,66
2019-06-20T07:00:45.133Z,66
2019-06-20T07:02:44.562Z,66
2019-06-20T07:04:45.309Z,66
2019-06-20T07:06:44.882Z,66
2019-06-20T07:08:45.605Z,66
2019-06-20T07:10:45.302Z,66
2019-06-20T07:12:44.851Z,64
2019-06-20T07:14:45.401Z,64
2019-06-20T07:17:01.081Z,64
2019-06-20T07:18:45.028Z,63
2019-06-20T07:20:43.001Z,63
2019-06-20T07:22:44.399Z,65
2019-06-20T07:24:44.855Z,65
2019-06-20T07:26:45.173Z,65
2019-06-20T07:28:44.868Z,65
2019-06-20T07:30:45.386Z,65
2019-06-20T07:32:45.299Z,65
2019-06-20T07:34:44.674Z,65
2019-06-20T07:36:45.077Z,65
2019-06-20T07:38:44.493Z,63
2019-06-20T07:40:45.093Z,63
2019-06-20T07:42:44.595Z,63
2019-06-20T07:44:45.232Z,63
2019-06-20T07:46:44.644Z,63
2019-06-20T07:48:45.139Z,62
2019-06-20T07:50:44.599Z,62
2019-06-20T07:53:03.166Z,62
2019-06-20T07:54:44.709Z,62
2019-06-20T07:56:45.163Z,62
2019-06-20T07:58:45.155Z,62
2019-06-20T08:00:44.849Z,62
2019-06-20T08:02:45.695Z,62
2019-06-20T08:04:45.199Z,62
2019-06-20T08:06:44.680Z,62
2019-06-20T08:08:45.446Z,61
2019-06-20T08:10:45.083Z,61
2019-06-20T08:12:44.726Z,61
2019-06-20T08:14:45.660Z,61
2019-06-20T08:16:45.273Z,61
2019-06-20T08:18:45.079Z,61
2019-06-20T08:20:44.731Z,61
2019-06-20T08:22:45.244Z,62
2019-06-20T08:24:44.819Z,62
2019-06-20T08:26:45.821Z,62
2019-06-20T08:28:45.265Z,62
2019-06-20T08:30:45.238Z,62
2019-06-20T08:32:43.215Z,61
2019-06-20T08:34:44.641Z,61
2019-06-20T08:36:45.287Z,61
2019-06-20T08:38:44.840Z,61
2019-06-20T08:40:45.281Z,61
2019-06-20T08:42:44.965Z,61
2019-06-20T08:44:44.665Z,61
2019-06-20T08:46:45.280Z,61
2019-06-20T08:48:44.767Z,60
2019-06-20T08:50:45.437Z,60
2019-06-20T08:52:44.904Z,60
2019-06-20T08:54:44.538Z,60
2019-06-20T08:56:45.072Z,60
2019-06-20T08:58:44.673Z,60
2019-06-20T09:00:45.166Z,60
2019-06-20T09:02:44.794Z,60
2019-06-20T09:04:45.376Z,60
2019-06-20T09:06:45.535Z,60
2019-06-20T09:08:45.692Z,60
2019-06-20T09:10:45.050Z,60
2019-06-20T09:12:44.408Z,61
2019-06-20T09:14:44.975Z,61
2019-06-20T09:16:44.450Z,61
2019-06-20T09:18:44.919Z,61
2019-06-20T09:20:45.303Z,61
2019-06-20T09:22:44.762Z,59
2019-06-20T09:24:45.349Z,59
2019-06-20T09:26:44.761Z,59
2019-06-20T09:28:45.206Z,61
2019-06-20T09:30:44.760Z,61
2019-06-20T09:32:45.522Z,60
2019-06-20T09:34:44.963Z,60
2019-06-20T09:36:44.780Z,60
2019-06-20T09:38:45.603Z,60
2019-06-20T09:40:45.611Z,60
2019-06-20T09:42:43.445Z,60
2019-06-20T09:44:44.890Z,60
2019-06-20T09:46:45.344Z,60
2019-06-20T09:48:45.108Z,60
2019-06-20T09:50:44.743Z,60
2019-06-20T09:52:45.098Z,60
2019-06-20T09:54:44.729Z,60
2019-06-20T09:56:54.725Z,60
2019-06-20T09:58:44.974Z,60
2019-06-20T10:00:49.183Z,60
2019-06-20T10:02:51.992Z,60
2019-06-20T10:04:44.424Z,60
2019-06-20T10:06:48.661Z,60
2019-06-20T10:08:49.799Z,60
2019-06-20T10:12:47.997Z,60
2019-06-20T10:14:49.526Z,60
2019-06-20T10:16:53.483Z,60
2019-06-20T10:18:48.619Z,59
2019-06-20T10:22:57.911Z,58
2019-06-20T10:24:47.661Z,58
2019-06-20T10:26:49.258Z,58
2019-06-20T10:28:49.170Z,59
2019-06-20T10:30:46.283Z,59
2019-06-20T10:32:46.990Z,58
2019-06-20T10:34:48.105Z,58
2019-06-20T10:36:47.826Z,58
2019-06-20T10:38:47.784Z,56
2019-06-20T10:40:48.089Z,56
2019-06-20T10:42:46.362Z,56
2019-06-20T10:44:45.939Z,56
2019-06-20T10:46:47.513Z,56
2019-06-20T10:48:46.365Z,57
2019-06-20T10:50:46.059Z,57
2019-06-20T10:52:45.638Z,55
2019-06-20T10:54:45.416Z,55
2019-06-20T10:56:48.770Z,55
2019-06-20T10:58:46.736Z,53
2019-06-20T11:00:46.304Z,53
2019-06-20T11:02:45.357Z,53
2019-06-20T11:04:46.030Z,53
2019-06-20T11:06:47.501Z,53
2019-06-20T11:08:45.479Z,53
2019-06-20T11:10:45.458Z,53
2019-06-20T11:12:56.492Z,51
2019-06-20T11:14:46.586Z,51
2019-06-20T11:16:46.888Z,51
2019-06-20T11:18:44.703Z,52
2019-06-20T11:20:44.783Z,52
2019-06-20T11:22:45.808Z,51
2019-06-20T11:24:45.534Z,51
2019-06-20T11:26:47.655Z,51
2019-06-20T11:28:45.568Z,50
2019-06-20T11:31:00.927Z,50
2019-06-20T11:32:46.134Z,52
2019-06-20T11:34:45.301Z,52
2019-06-20T11:36:46.928Z,52
2019-06-20T11:38:46.929Z,50
2019-06-20T11:40:45.503Z,50
2019-06-20T11:42:45.087Z,51
2019-06-20T11:44:45.494Z,51
2019-06-20T11:46:45.031Z,51
2019-06-20T11:48:44.483Z,48
2019-06-20T11:50:46.276Z,48
2019-06-20T11:52:46.293Z,49
2019-06-20T11:54:44.828Z,49
2019-06-20T11:56:45.507Z,49
2019-06-20T11:58:45.133Z,47
2019-06-20T12:01:03.743Z,47
2019-06-20T12:02:48.445Z,47
2019-06-20T12:06:45.329Z,47
2019-06-20T12:08:47.012Z,43
2019-06-20T12:10:45.549Z,43
2019-06-20T12:12:46.765Z,43
2019-06-20T12:14:48.514Z,43
2019-06-20T12:16:46.611Z,43
2019-06-20T12:18:45.579Z,41
2019-06-20T12:20:44.871Z,41
2019-06-20T12:22:46.808Z,42
2019-06-20T12:24:46.812Z,42
2019-06-20T12:26:46.959Z,42
2019-06-20T12:28:45.122Z,42
2019-06-20T12:30:45.961Z,42
2019-06-20T12:32:47.152Z,41
2019-06-20T12:34:44.935Z,41
2019-06-20T12:36:44.776Z,41
2019-06-20T12:38:46.432Z,41
2019-06-20T12:40:46.568Z,41
2019-06-20T12:42:46.996Z,41
2019-06-20T12:44:45.916Z,41
2019-06-20T12:46:45.147Z,41
2019-06-20T12:48:45.472Z,40
2019-06-20T12:50:45.507Z,40
2019-06-20T12:52:48.173Z,42
2019-06-20T12:54:45.310Z,42
2019-06-20T12:56:46.577Z,42
2019-06-20T12:58:44.880Z,41
2019-06-20T13:00:46.832Z,41
2019-06-20T13:02:47.327Z,41
2019-06-20T13:04:46.326Z,41
2019-06-20T13:06:44.830Z,41
2019-06-20T13:08:45.632Z,40
2019-06-20T13:10:45.921Z,40
2019-06-20T13:12:46.520Z,40
2019-06-20T13:14:46.065Z,40
2019-06-20T13:16:46.327Z,40
2019-06-20T13:18:46.427Z,40
2019-06-20T13:20:44.803Z,40
2019-06-20T13:22:46.736Z,40
2019-06-20T13:24:45.542Z,40
2019-06-20T13:26:45.430Z,40
2019-06-20T13:29:04.816Z,40
2019-06-20T13:30:52.222Z,40
2019-06-20T13:32:48.693Z,40
2019-06-20T13:34:47.096Z,40
2019-06-20T13:36:45.311Z,40
2019-06-20T13:38:47.056Z,39
2019-06-20T13:40:46.957Z,39
2019-06-20T13:42:48.205Z,40
2019-06-20T13:44:46.306Z,40
2019-06-20T13:46:46.225Z,40
2019-06-20T13:48:47.628Z,40
2019-06-20T13:52:51.127Z,40
2019-06-20T13:54:48.092Z,40
2019-06-20T13:56:45.520Z,40
2019-06-20T13:58:45.115Z,39
2019-06-20T14:00:45.887Z,39
2019-06-20T14:04:48.088Z,39
2019-06-20T14:06:47.106Z,39
2019-06-20T14:08:47.614Z,40
2019-06-20T14:10:47.889Z,40
2019-06-20T14:12:46.472Z,40
2019-06-20T14:14:46.215Z,40
2019-06-20T14:16:45.947Z,40
2019-06-20T14:18:46.768Z,40
2019-06-20T14:20:46.822Z,40
2019-06-20T14:22:45.520Z,41
2019-06-20T14:24:45.709Z,41
2019-06-20T14:26:48.351Z,41
2019-06-20T14:28:46.368Z,42
2019-06-20T14:30:48.056Z,42
2019-06-20T14:32:45.336Z,41
2019-06-20T14:34:46.990Z,41
2019-06-20T14:36:50.203Z,41
2019-06-20T14:38:47.507Z,41
2019-06-20T14:40:45.718Z,41
2019-06-20T14:42:48.066Z,41
2019-06-20T14:44:47.775Z,41
2019-06-20T14:46:45.640Z,41
2019-06-20T14:48:49.892Z,43
2019-06-20T14:50:49.243Z,43
2019-06-20T14:52:51.771Z,44
2019-06-20T14:56:48.060Z,44
2019-06-20T14:58:47.055Z,45
2019-06-20T15:00:48.230Z,45
2019-06-20T15:02:52.938Z,45
2019-06-20T15:04:47.984Z,45
2019-06-20T15:06:48.605Z,45
2019-06-20T15:08:50.755Z,45
2019-06-20T15:12:49.796Z,44
2019-06-20T15:12:50.177Z,44
2019-06-20T15:16:49.423Z,44
2019-06-20T15:20:59.750Z,43
2019-06-20T15:22:50.665Z,43
2019-06-20T15:24:52.086Z,43
2019-06-20T15:26:50.488Z,43
2019-06-20T15:28:50.956Z,42
2019-06-20T15:30:50.522Z,42
2019-06-20T15:33:10.456Z,41
2019-06-20T15:34:51.231Z,41
2019-06-20T15:36:50.285Z,41
2019-06-20T15:38:44.758Z,42
2019-06-20T15:40:45.319Z,42
2019-06-20T15:42:45.528Z,42
2019-06-20T15:44:44.790Z,42
2019-06-20T15:46:45.406Z,42
2019-06-20T15:48:45.070Z,42
2019-06-20T15:50:44.774Z,42
2019-06-20T15:52:46.839Z,42
2019-06-20T15:54:45.427Z,42
2019-06-20T15:56:45.089Z,42
2019-06-20T15:58:44.883Z,43
2019-06-20T16:00:45.645Z,43
2019-06-20T16:02:45.409Z,43
2019-06-20T16:04:44.871Z,43
2019-06-20T16:06:45.461Z,43
2019-06-20T16:08:44.991Z,42
2019-06-20T16:10:46.526Z,42
2019-06-20T16:12:44.968Z,43
2019-06-20T16:14:45.771Z,43
2019-06-20T16:16:45.134Z,43
2019-06-20T16:18:44.721Z,42
2019-06-20T16:20:46.008Z,42
2019-06-20T16:22:44.612Z,42
2019-06-20T16:24:45.629Z,42
2019-06-20T16:26:45.151Z,42
2019-06-20T16:28:44.724Z,41
2019-06-20T16:30:45.074Z,41
2019-06-20T16:32:44.677Z,41
2019-06-20T16:34:45.082Z,41
2019-06-20T16:36:44.584Z,41
2019-06-20T16:38:45.264Z,40
2019-06-20T16:40:45.369Z,40
2019-06-20T16:42:44.854Z,40
2019-06-20T16:44:45.521Z,40
2019-06-20T16:46:45.564Z,40
2019-06-20T16:50:43.913Z,40
2019-06-20T16:52:43.497Z,40
2019-06-20T16:54:43.145Z,40
2019-06-20T16:56:46.105Z,40
2019-06-20T16:58:45.424Z,40
2019-06-20T17:00:43.988Z,40
2019-06-20T17:02:45.581Z,40
2019-06-20T17:04:45.031Z,40
2019-06-20T17:07:22.503Z,40
2019-06-20T17:09:24.257Z,40
2019-06-20T17:11:23.828Z,40
2019-06-20T17:13:25.097Z,40
2019-06-20T17:15:23.701Z,40
2019-06-20T17:17:24.321Z,40
2019-06-20T17:19:23.975Z,40
2019-06-20T17:21:23.783Z,40
2019-06-20T17:23:24.609Z,40
2019-06-20T17:25:24.142Z,40
2019-06-20T17:27:24.024Z,41
2019-06-20T17:29:23.797Z,41
2019-06-20T17:31:24.250Z,41
2019-06-20T17:33:23.978Z,41
2019-06-20T17:35:23.531Z,41
2019-06-20T17:37:24.044Z,40
2019-06-20T17:39:24.440Z,40
2019-06-20T17:41:24.418Z,40
2019-06-20T17:43:24.677Z,40
2019-06-20T17:45:24.428Z,40
2019-06-20T17:47:23.978Z,40
2019-06-20T17:49:23.514Z,40
2019-06-20T17:51:24.233Z,41
2019-06-20T17:53:23.798Z,41
2019-06-20T17:55:24.382Z,41
2019-06-20T17:57:24.122Z,42
2019-06-20T17:59:23.762Z,42
2019-06-20T18:01:24.340Z,42
2019-06-20T18:03:23.973Z,42
2019-06-20T18:04:48.392Z,42
2019-06-20T18:06:44.933Z,42
2019-06-20T18:08:44.677Z,42
2019-06-20T18:10:45.205Z,51
2019-06-20T18:12:44.890Z,51
2019-06-20T18:14:45.604Z,51
2019-06-20T18:16:45.665Z,51
2019-06-20T18:18:43.655Z,51
2019-06-20T18:20:45.283Z,53
2019-06-20T18:22:44.753Z,53
2019-06-20T18:24:45.283Z,54
2019-06-20T18:26:45.226Z,54
2019-06-20T18:28:45.220Z,54
2019-06-20T18:30:43.384Z,55
2019-06-20T18:32:44.888Z,55
2019-06-20T18:35:02.851Z,56
2019-06-20T18:36:44.738Z,56
2019-06-20T18:38:45.421Z,56
2019-06-20T18:40:44.936Z,55
2019-06-20T18:42:45.485Z,55
2019-06-20T18:44:45.414Z,57
2019-06-20T18:46:44.910Z,57
2019-06-20T18:48:44.991Z,57
2019-06-20T18:50:45.622Z,59
2019-06-20T18:52:53.139Z,59
2019-06-20T18:54:44.747Z,59
2019-06-20T18:56:45.473Z,59
2019-06-20T18:58:45.490Z,59
2019-06-20T19:00:43.547Z,60
2019-06-20T19:02:45.083Z,60
2019-06-20T19:04:51.146Z,60
2019-06-20T19:08:45.006Z,60
2019-06-20T19:10:45.188Z,60
2019-06-20T19:12:44.654Z,60
2019-06-20T19:14:45.248Z,61
2019-06-20T19:16:44.822Z,61
2019-06-20T19:18:45.502Z,61
2019-06-20T19:20:45.566Z,61
2019-06-20T19:22:45.106Z,61
2019-06-20T19:24:44.753Z,61
2019-06-20T19:26:45.501Z,61
2019-06-20T19:28:45.099Z,61
2019-06-20T19:30:45.300Z,61
2019-06-20T19:32:45.742Z,61
2019-06-20T19:35:02.927Z,62
2019-06-20T19:36:45.055Z,62
2019-06-20T19:38:43.280Z,62
2019-06-20T19:40:44.799Z,62
2019-06-20T19:42:45.580Z,62
2019-06-20T19:44:45.185Z,62
2019-06-20T19:46:45.058Z,62
2019-06-20T19:48:44.612Z,62
2019-06-20T19:50:45.791Z,62
2019-06-20T19:52:44.092Z,62
2019-06-20T19:54:44.548Z,61
2019-06-20T19:56:45.263Z,61
2019-06-20T19:58:45.150Z,61
2019-06-20T20:00:45.290Z,61
2019-06-20T20:02:45.978Z,61
2019-06-20T20:04:44.471Z,61
2019-06-20T20:07:23.122Z,61
2019-06-20T20:09:23.901Z,61
2019-06-20T20:11:24.194Z,61
2019-06-20T20:13:23.971Z,61
2019-06-20T20:15:23.806Z,61
2019-06-20T20:17:23.519Z,61
2019-06-20T20:19:23.883Z,61
2019-06-20T20:21:23.571Z,61
2019-06-20T20:23:23.059Z,61
2019-06-20T20:25:23.916Z,61
2019-06-20T20:27:23.840Z,61
2019-06-20T20:29:23.315Z,62
2019-06-20T20:31:24.580Z,62
2019-06-20T20:33:23.277Z,62
2019-06-20T20:35:36.289Z,65
2019-06-20T20:37:23.844Z,65
2019-06-20T20:39:23.491Z,66
2019-06-20T20:41:23.402Z,66
2019-06-20T20:43:23.210Z,66
2019-06-20T20:45:23.962Z,67
2019-06-20T20:47:23.501Z,67
2019-06-20T20:49:23.205Z,67
2019-06-20T20:51:24.483Z,67
2019-06-20T20:53:23.082Z,67
2019-06-20T20:55:23.790Z,67
2019-06-20T20:57:23.527Z,67
2019-06-20T20:59:23.213Z,67
2019-06-20T21:01:23.839Z,67
2019-06-20T21:03:23.813Z,67
2019-06-20T21:05:23.503Z,67
2019-06-20T21:07:23.430Z,67
2019-06-20T21:09:23.217Z,67
2019-06-20T21:11:24.638Z,67
2019-06-20T21:13:23.418Z,67
2019-06-20T21:15:23.769Z,68
2019-06-20T21:17:23.475Z,68
2019-06-20T21:19:23.832Z,68
2019-06-20T21:21:24.426Z,68
2019-06-20T21:23:23.587Z,68
2019-06-20T21:25:23.410Z,67
2019-06-20T21:27:23.851Z,67
2019-06-20T21:29:24.114Z,67
2019-06-20T21:31:24.320Z,67
2019-06-20T21:33:24.465Z,67
2019-06-20T21:35:24.208Z,66
2019-06-20T21:37:24.289Z,66
2019-06-20T21:39:23.846Z,66
2019-06-20T21:41:23.875Z,66
2019-06-20T21:43:24.171Z,66
2019-06-20T21:45:24.346Z,66
2019-06-20T21:47:23.745Z,66
2019-06-20T21:49:25.023Z,66
2019-06-20T21:51:26.780Z,66
2019-06-20T21:53:25.694Z,66
2019-06-20T21:55:26.383Z,66
2019-06-20T21:57:25.961Z,66
2019-06-20T21:59:24.843Z,66
2019-06-20T22:01:25.369Z,66
2019-06-20T22:03:23.006Z,66
2019-06-20T22:04:55.194Z,66
2019-06-20T22:06:44.884Z,66
2019-06-20T22:08:45.188Z,67
2019-06-20T22:10:45.573Z,67
2019-06-20T22:12:45.794Z,66
2019-06-20T22:14:45.498Z,66
2019-06-20T22:16:47.244Z,66
2019-06-20T22:18:46.153Z,66
2019-06-20T22:20:47.109Z,66
2019-06-20T22:22:47.174Z,67
2019-06-20T22:24:45.996Z,67
2019-06-20T22:26:51.483Z,67
2019-06-20T22:30:51.171Z,67
2019-06-20T22:32:46.541Z,68
2019-06-20T22:34:51.845Z,68
2019-06-20T22:36:43.824Z,68
2019-06-20T22:38:51.595Z,69
2019-06-20T22:40:45.934Z,69
2019-06-20T22:42:51.395Z,70
2019-06-20T22:44:49.186Z,70
2019-06-20T22:48:47.379Z,70
2019-06-20T22:50:49.933Z,70
2019-06-20T22:52:44.987Z,70
2019-06-20T22:54:51.740Z,70
2019-06-20T22:56:45.183Z,70
2019-06-20T22:58:51.520Z,70
2019-06-20T23:00:45.500Z,70
2019-06-20T23:02:51.591Z,70
2019-06-20T23:04:46.785Z,70
2019-06-20T23:06:57.329Z,70
2019-06-20T23:08:46.012Z,69
2019-06-20T23:12:46.883Z,70
2019-06-20T23:14:51.152Z,70
2019-06-20T23:16:46.039Z,70
2019-06-20T23:18:50.662Z,70
2019-06-20T23:21:05.489Z,70
2019-06-20T23:22:50.936Z,70
2019-06-20T23:24:45.871Z,70
2019-06-20T23:26:52.138Z,70
2019-06-20T23:28:45.703Z,70
2019-06-20T23:30:51.636Z,70
2019-06-20T23:32:46.421Z,70
2019-06-20T23:34:51.958Z,70
2019-06-20T23:36:46.894Z,70
2019-06-20T23:38:51.201Z,70
2019-06-20T23:40:47.456Z,70
2019-06-20T23:42:49.959Z,70
2019-06-20T23:46:51.029Z,70
2019-06-20T23:46:51.030Z,70
2019-06-20T23:48:46.214Z,70
2019-06-20T23:50:51.572Z,70
2019-06-20T23:52:46.207Z,71
2019-06-20T23:54:51.501Z,71
2019-06-20T23:58:51.771Z,71
